Flight Track Log - Related Links

Times and Time Zones

All times are in EDT time to prevent confusion due to time zone crossing. See the CTL16 flight status page for this flight to view local times or setup timezone preferences in your user account.


Time Position Orientation Groundspeed Altitude Reporting Facility
EDT Latitude Longitude Course Direction KTS MPH feet Rate Location/Type
Wed 08:33:17 PM 39.3833 -84.5333 38° Northeast 140 161 1,700  Level Cincinnati TRACON
Wed 08:34:11 PM 39.4167 -84.5000 38° Northeast 154 177 2,400 779 Climbing Cincinnati TRACON
Wed 08:34:34 PM 39.4183 -84.4808 84° East 156 180 2,700 600 Climbing Indianapolis Center
Wed 08:35:11 PM 39.4350 -84.4567 48° Northeast 158 182 3,000 556 Climbing Indianapolis Center
Wed 08:35:28 PM 39.4425 -84.4408 58° Northeast 167 192 3,200 492 Climbing Indianapolis Center
Wed 08:36:12 PM 39.4650 -84.4086 48° Northeast 167 192 3,500 590 Climbing Indianapolis Center
Wed 08:36:29 PM 39.4758 -84.3911 51° Northeast 175 201 3,800 581 Climbing Indianapolis Center
Wed 08:37:14 PM 39.4958 -84.3592 51° Northeast 171 197 4,100 492 Climbing Indianapolis Center
Wed 08:37:30 PM 39.5072 -84.3414 50° Northeast 179 206 4,300 581 Climbing Indianapolis Center
Wed 08:38:16 PM 39.5289 -84.3083 50° Northeast 177 204 4,700 449 Climbing Indianapolis Center
Wed 08:39:17 PM 39.5611 -84.2597 49° Northeast 177 204 5,100 439 Climbing Indianapolis Center
Wed 08:40:19 PM 39.5931 -84.2106 50° Northeast 177 204 5,600 488 Climbing Indianapolis Center
Wed 08:41:20 PM 39.6253 -84.1614 50° Northeast 177 204 6,100 488 Climbing Indianapolis Center
Wed 08:42:22 PM 39.6603 -84.1042 52° Northeast 177 204 6,600 393 Climbing Indianapolis Center
Wed 08:43:22 PM 39.6914 -84.0539 51° Northeast 180 207 6,900 149 Climbing Indianapolis Center
Wed 08:44:23 PM 39.7242 -84.0067 48° Northeast 178 205 6,900  Level Indianapolis Center
Wed 08:45:26 PM 39.7608 -83.9569 46° Northeast 179 206 6,900  Level Indianapolis Center
Wed 08:46:24 PM 39.7906 -83.9094 51° Northeast 181 208 6,900  Level Indianapolis Center
Wed 08:47:24 PM 39.8281 -83.8572 47° Northeast 181 208 6,900 48 Level Indianapolis Center
Wed 08:48:30 PM 39.8636 -83.8122 44° Northeast 179 206 7,000 47 Climbing Indianapolis Center
Wed 08:49:32 PM 39.9011 -83.7692 41° Northeast 177 204 7,000  Level Indianapolis Center
Wed 08:50:26 PM 39.9361 -83.7294 41° Northeast 179 206 7,000  Level Indianapolis Center
Wed 08:51:27 PM 39.9728 -83.6850 43° Northeast 179 206 7,000 -47 Level Indianapolis Center
Wed 08:52:34 PM 40.0144 -83.6331 44° Northeast 179 206 6,900  Descending Indianapolis Center
Wed 08:53:34 PM 40.0511 -83.5886 43° Northeast 176 203 7,000 52 Climbing Indianapolis Center
Wed 08:54:29 PM 40.0833 -83.5489 43° Northeast 181 208 7,000  Level Indianapolis Center
Wed 08:55:30 PM 40.1200 -83.5044 43° Northeast 180 207 7,000  Level Indianapolis Center
Wed 08:56:30 PM 40.1589 -83.4600 41° Northeast 178 205 7,000  Level Indianapolis Center
Wed 08:57:25 PM 40.1908 -83.4231 41° Northeast 176 203 7,000 -83 Level Indianapolis Center
Wed 08:57:42 PM 40.1975 -83.4150 43° Northeast 176 203 6,900  Descending Indianapolis Center
Wed 08:58:26 PM 40.2275 -83.3783 43° Northeast 179 206 7,000  Climbing Indianapolis Center
Wed 08:58:44 PM 40.2342 -83.3697 45° Northeast 178 205 6,900 76 Descending Indianapolis Center
Wed 08:59:45 PM 40.2700 -83.3242 44° Northeast 178 205 7,100 98 Climbing Indianapolis Center
Wed 09:00:46 PM 40.3047 -83.2772 46° Northeast 178 205 7,100 -49 Level Indianapolis Center
Wed 09:01:48 PM 40.3475 -83.2244 43° Northeast 179 206 7,000 -49 Descending Indianapolis Center
Wed 09:02:49 PM 40.3844 -83.1797 43° Northeast 180 207 7,000 49 Level Indianapolis Center
Wed 09:03:50 PM 40.4211 -83.1342 43° Northeast 180 207 7,100 49 Climbing Indianapolis Center
Wed 09:04:52 PM 40.4575 -83.0889 43° Northeast 179 206 7,100  Level Indianapolis Center
Wed 09:05:53 PM 40.4928 -83.0447 44° Northeast 175 201 7,100  Level Indianapolis Center
Wed 09:06:54 PM 40.5283 -83.0028 42° Northeast 180 207 7,100  Level Indianapolis Center
Wed 09:07:56 PM 40.5636 -82.9558 45° Northeast 179 206 7,100  Level Indianapolis Center
Wed 09:08:57 PM 40.5997 -82.9058 46° Northeast 185 213 7,100  Level Indianapolis Center
Wed 09:09:58 PM 40.6333 -82.8575 47° Northeast 180 207 7,100  Level Indianapolis Center
Wed 09:10:59 PM 40.6706 -82.8117 43° Northeast 181 208 7,100  Level Indianapolis Center
Wed 09:12:01 PM 40.7122 -82.7536 47° Northeast 185 213 7,100  Level Indianapolis Center
Wed 09:13:02 PM 40.7458 -82.7056 47° Northeast 179 206 7,100  Level Indianapolis Center
Wed 09:14:03 PM 40.7808 -82.6569 46° Northeast 180 207 7,100  Level Indianapolis Center
Wed 09:14:37 PM 40.8033 -82.6350 36° Northeast 182 209 7,100  Level Cleveland Center

Login

Don't have an account? Register now (free) for customized features, flight alerts, and more!